sensor_id;sensor_type;location;lat;lon;timestamp;P1;durP1;ratioP1;P2;durP2;ratioP2
29730;SDS011;16639;51.488;0.152;2024-02-26T00:01:58;24.15;;;10.95;;
29730;SDS011;16639;51.488;0.152;2024-02-26T00:04:26;27.38;;;12.52;;
29730;SDS011;16639;51.488;0.152;2024-02-26T00:06:53;28.63;;;11.15;;
29730;SDS011;16639;51.488;0.152;2024-02-26T00:09:21;23.50;;;9.18;;
29730;SDS011;16639;51.488;0.152;2024-02-26T00:11:49;18.45;;;8.77;;
29730;SDS011;16639;51.488;0.152;2024-02-26T00:14:16;18.05;;;10.85;;
29730;SDS011;16639;51.488;0.152;2024-02-26T00:16:43;17.67;;;9.70;;
29730;SDS011;16639;51.488;0.152;2024-02-26T00:19:12;17.27;;;9.30;;
29730;SDS011;16639;51.488;0.152;2024-02-26T00:21:40;20.42;;;9.13;;
29730;SDS011;16639;51.488;0.152;2024-02-26T00:24:10;18.83;;;10.95;;
29730;SDS011;16639;51.488;0.152;2024-02-26T00:26:38;22.27;;;9.90;;
29730;SDS011;16639;51.488;0.152;2024-02-26T00:29:06;28.73;;;9.82;;
29730;SDS011;16639;51.488;0.152;2024-02-26T00:31:33;20.52;;;10.18;;
29730;SDS011;16639;51.488;0.152;2024-02-26T00:34:01;23.40;;;9.77;;
29730;SDS011;16639;51.488;0.152;2024-02-26T00:36:28;20.55;;;9.52;;
29730;SDS011;16639;51.488;0.152;2024-02-26T00:38:56;23.20;;;9.48;;
29730;SDS011;16639;51.488;0.152;2024-02-26T00:41:23;21.23;;;11.02;;
29730;SDS011;16639;51.488;0.152;2024-02-26T00:43:51;27.52;;;10.15;;
29730;SDS011;16639;51.488;0.152;2024-02-26T00:46:18;27.80;;;12.13;;
29730;SDS011;16639;51.488;0.152;2024-02-26T00:48:45;27.83;;;10.23;;
29730;SDS011;16639;51.488;0.152;2024-02-26T00:51:13;22.40;;;10.45;;
29730;SDS011;16639;51.488;0.152;2024-02-26T00:53:40;26.15;;;11.52;;
29730;SDS011;16639;51.488;0.152;2024-02-26T00:56:08;25.48;;;11.85;;
29730;SDS011;16639;51.488;0.152;2024-02-26T00:58:35;24.33;;;11.38;;
29730;SDS011;16639;51.488;0.152;2024-02-26T01:01:03;26.20;;;11.57;;
29730;SDS011;16639;51.488;0.152;2024-02-26T01:03:30;26.85;;;11.60;;
29730;SDS011;16639;51.488;0.152;2024-02-26T01:05:58;24.95;;;13.23;;
29730;SDS011;16639;51.488;0.152;2024-02-26T01:08:25;32.30;;;12.20;;
29730;SDS011;16639;51.488;0.152;2024-02-26T01:10:53;28.02;;;12.20;;
29730;SDS011;16639;51.488;0.152;2024-02-26T01:13:20;27.33;;;12.15;;
29730;SDS011;16639;51.488;0.152;2024-02-26T01:15:47;27.88;;;12.85;;
29730;SDS011;16639;51.488;0.152;2024-02-26T01:18:15;29.58;;;12.63;;
29730;SDS011;16639;51.488;0.152;2024-02-26T01:20:42;33.08;;;12.35;;
29730;SDS011;16639;51.488;0.152;2024-02-26T01:23:10;25.50;;;12.98;;
29730;SDS011;16639;51.488;0.152;2024-02-26T01:25:37;25.77;;;11.98;;
29730;SDS011;16639;51.488;0.152;2024-02-26T01:28:05;23.73;;;12.25;;
29730;SDS011;16639;51.488;0.152;2024-02-26T01:30:33;27.10;;;13.25;;
29730;SDS011;16639;51.488;0.152;2024-02-26T01:33:00;26.48;;;12.32;;
29730;SDS011;16639;51.488;0.152;2024-02-26T01:35:27;26.85;;;12.73;;
29730;SDS011;16639;51.488;0.152;2024-02-26T01:37:55;21.98;;;11.13;;
29730;SDS011;16639;51.488;0.152;2024-02-26T01:40:22;31.50;;;11.10;;
29730;SDS011;16639;51.488;0.152;2024-02-26T01:42:53;27.92;;;11.30;;
29730;SDS011;16639;51.488;0.152;2024-02-26T01:45:20;19.88;;;11.13;;
29730;SDS011;16639;51.488;0.152;2024-02-26T01:47:51;20.50;;;10.02;;
29730;SDS011;16639;51.488;0.152;2024-02-26T01:50:19;21.10;;;11.73;;
29730;SDS011;16639;51.488;0.152;2024-02-26T01:52:49;71.85;;;16.55;;
29730;SDS011;16639;51.488;0.152;2024-02-26T01:55:18;306.58;;;34.88;;
29730;SDS011;16639;51.488;0.152;2024-02-26T01:57:47;73.47;;;16.42;;
29730;SDS011;16639;51.488;0.152;2024-02-26T02:00:15;21.30;;;11.98;;
29730;SDS011;16639;51.488;0.152;2024-02-26T02:02:43;27.95;;;12.60;;
29730;SDS011;16639;51.488;0.152;2024-02-26T02:05:14;23.90;;;12.02;;
29730;SDS011;16639;51.488;0.152;2024-02-26T02:07:45;27.48;;;12.13;;
29730;SDS011;16639;51.488;0.152;2024-02-26T02:10:15;23.02;;;11.02;;
29730;SDS011;16639;51.488;0.152;2024-02-26T02:12:44;26.38;;;11.55;;
29730;SDS011;16639;51.488;0.152;2024-02-26T02:15:12;21.58;;;12.07;;
29730;SDS011;16639;51.488;0.152;2024-02-26T02:17:39;25.58;;;12.43;;
29730;SDS011;16639;51.488;0.152;2024-02-26T02:20:15;21.27;;;11.07;;
29730;SDS011;16639;51.488;0.152;2024-02-26T02:22:46;28.00;;;10.73;;
29730;SDS011;16639;51.488;0.152;2024-02-26T02:25:13;27.92;;;11.85;;
29730;SDS011;16639;51.488;0.152;2024-02-26T02:27:41;31.50;;;11.57;;
29730;SDS011;16639;51.488;0.152;2024-02-26T02:30:10;22.70;;;11.02;;
29730;SDS011;16639;51.488;0.152;2024-02-26T02:32:39;20.35;;;10.98;;
29730;SDS011;16639;51.488;0.152;2024-02-26T02:35:08;24.95;;;10.30;;
29730;SDS011;16639;51.488;0.152;2024-02-26T02:37:36;23.75;;;9.95;;
29730;SDS011;16639;51.488;0.152;2024-02-26T02:40:04;25.65;;;11.48;;
29730;SDS011;16639;51.488;0.152;2024-02-26T02:42:32;25.90;;;10.90;;
29730;SDS011;16639;51.488;0.152;2024-02-26T02:44:59;19.33;;;8.68;;
29730;SDS011;16639;51.488;0.152;2024-02-26T02:47:27;19.75;;;7.78;;
29730;SDS011;16639;51.488;0.152;2024-02-26T02:49:54;19.88;;;9.02;;
29730;SDS011;16639;51.488;0.152;2024-02-26T02:52:22;20.00;;;8.55;;
29730;SDS011;16639;51.488;0.152;2024-02-26T02:54:49;27.20;;;8.57;;
29730;SDS011;16639;51.488;0.152;2024-02-26T02:57:16;17.02;;;8.32;;
29730;SDS011;16639;51.488;0.152;2024-02-26T02:59:44;20.58;;;10.27;;
29730;SDS011;16639;51.488;0.152;2024-02-26T03:02:11;23.02;;;8.32;;
29730;SDS011;16639;51.488;0.152;2024-02-26T03:04:39;15.13;;;7.35;;
29730;SDS011;16639;51.488;0.152;2024-02-26T03:07:06;16.70;;;8.05;;
29730;SDS011;16639;51.488;0.152;2024-02-26T03:09:34;17.20;;;8.45;;
29730;SDS011;16639;51.488;0.152;2024-02-26T03:12:01;15.20;;;7.82;;
29730;SDS011;16639;51.488;0.152;2024-02-26T03:14:29;18.73;;;7.53;;
29730;SDS011;16639;51.488;0.152;2024-02-26T03:16:56;14.52;;;6.88;;
29730;SDS011;16639;51.488;0.152;2024-02-26T03:19:24;13.38;;;7.68;;
29730;SDS011;16639;51.488;0.152;2024-02-26T03:21:52;24.02;;;8.70;;
29730;SDS011;16639;51.488;0.152;2024-02-26T03:24:20;15.50;;;8.20;;
29730;SDS011;16639;51.488;0.152;2024-02-26T03:26:47;17.88;;;7.15;;
29730;SDS011;16639;51.488;0.152;2024-02-26T03:29:15;13.43;;;7.05;;
29730;SDS011;16639;51.488;0.152;2024-02-26T03:31:42;22.63;;;7.82;;
29730;SDS011;16639;51.488;0.152;2024-02-26T03:34:09;20.45;;;7.55;;
29730;SDS011;16639;51.488;0.152;2024-02-26T03:36:39;17.35;;;7.55;;
29730;SDS011;16639;51.488;0.152;2024-02-26T03:39:07;15.52;;;7.28;;
29730;SDS011;16639;51.488;0.152;2024-02-26T03:41:35;14.45;;;7.03;;
29730;SDS011;16639;51.488;0.152;2024-02-26T03:44:03;12.10;;;7.32;;
29730;SDS011;16639;51.488;0.152;2024-02-26T03:46:30;17.20;;;7.38;;
29730;SDS011;16639;51.488;0.152;2024-02-26T03:48:57;12.45;;;6.72;;
29730;SDS011;16639;51.488;0.152;2024-02-26T03:51:25;23.77;;;7.95;;
29730;SDS011;16639;51.488;0.152;2024-02-26T03:53:55;23.50;;;8.93;;
29730;SDS011;16639;51.488;0.152;2024-02-26T03:56:22;19.88;;;8.73;;
29730;SDS011;16639;51.488;0.152;2024-02-26T03:58:49;18.80;;;7.75;;
29730;SDS011;16639;51.488;0.152;2024-02-26T04:01:17;15.88;;;7.32;;
29730;SDS011;16639;51.488;0.152;2024-02-26T04:03:44;32.15;;;8.88;;
29730;SDS011;16639;51.488;0.152;2024-02-26T04:06:12;22.45;;;8.32;;
29730;SDS011;16639;51.488;0.152;2024-02-26T04:08:45;10.63;;;6.00;;
29730;SDS011;16639;51.488;0.152;2024-02-26T04:11:12;16.60;;;6.45;;
29730;SDS011;16639;51.488;0.152;2024-02-26T04:13:40;15.18;;;6.55;;
29730;SDS011;16639;51.488;0.152;2024-02-26T04:16:07;12.45;;;7.07;;
29730;SDS011;16639;51.488;0.152;2024-02-26T04:18:34;12.90;;;7.10;;
29730;SDS011;16639;51.488;0.152;2024-02-26T04:21:02;23.38;;;7.45;;
29730;SDS011;16639;51.488;0.152;2024-02-26T04:23:33;11.55;;;6.00;;
29730;SDS011;16639;51.488;0.152;2024-02-26T04:26:00;21.60;;;6.43;;
29730;SDS011;16639;51.488;0.152;2024-02-26T04:28:28;21.50;;;7.30;;
29730;SDS011;16639;51.488;0.152;2024-02-26T04:30:56;18.45;;;6.97;;
29730;SDS011;16639;51.488;0.152;2024-02-26T04:33:23;15.90;;;5.95;;
29730;SDS011;16639;51.488;0.152;2024-02-26T04:35:51;10.82;;;5.65;;
29730;SDS011;16639;51.488;0.152;2024-02-26T04:38:19;13.63;;;6.28;;
29730;SDS011;16639;51.488;0.152;2024-02-26T04:40:46;14.98;;;4.97;;
29730;SDS011;16639;51.488;0.152;2024-02-26T04:43:13;10.13;;;5.53;;
29730;SDS011;16639;51.488;0.152;2024-02-26T04:45:41;12.20;;;4.78;;
29730;SDS011;16639;51.488;0.152;2024-02-26T04:48:08;12.82;;;5.28;;
29730;SDS011;16639;51.488;0.152;2024-02-26T04:50:36;16.77;;;6.00;;
29730;SDS011;16639;51.488;0.152;2024-02-26T04:53:03;11.63;;;5.10;;
29730;SDS011;16639;51.488;0.152;2024-02-26T04:55:31;12.60;;;5.45;;
29730;SDS011;16639;51.488;0.152;2024-02-26T04:57:58;13.77;;;5.88;;
29730;SDS011;16639;51.488;0.152;2024-02-26T05:00:26;11.18;;;5.13;;
29730;SDS011;16639;51.488;0.152;2024-02-26T05:02:53;15.60;;;5.43;;
29730;SDS011;16639;51.488;0.152;2024-02-26T05:05:20;36.65;;;6.55;;
29730;SDS011;16639;51.488;0.152;2024-02-26T05:07:48;25.55;;;6.10;;
29730;SDS011;16639;51.488;0.152;2024-02-26T05:10:15;16.35;;;6.70;;
29730;SDS011;16639;51.488;0.152;2024-02-26T05:12:43;16.95;;;5.15;;
29730;SDS011;16639;51.488;0.152;2024-02-26T05:15:10;23.35;;;5.72;;
29730;SDS011;16639;51.488;0.152;2024-02-26T05:17:38;16.73;;;5.50;;
29730;SDS011;16639;51.488;0.152;2024-02-26T05:20:05;13.57;;;4.78;;
29730;SDS011;16639;51.488;0.152;2024-02-26T05:22:34;160.05;;;15.30;;
29730;SDS011;16639;51.488;0.152;2024-02-26T05:25:02;18.58;;;5.60;;
29730;SDS011;16639;51.488;0.152;2024-02-26T05:27:30;12.23;;;5.38;;
29730;SDS011;16639;51.488;0.152;2024-02-26T05:29:57;20.98;;;5.30;;
29730;SDS011;16639;51.488;0.152;2024-02-26T05:32:25;15.15;;;5.57;;
29730;SDS011;16639;51.488;0.152;2024-02-26T05:34:52;66.07;;;9.55;;
29730;SDS011;16639;51.488;0.152;2024-02-26T05:37:20;13.20;;;4.25;;
29730;SDS011;16639;51.488;0.152;2024-02-26T05:39:47;11.93;;;4.10;;
29730;SDS011;16639;51.488;0.152;2024-02-26T05:42:15;8.10;;;3.80;;
29730;SDS011;16639;51.488;0.152;2024-02-26T05:44:43;10.10;;;4.00;;
29730;SDS011;16639;51.488;0.152;2024-02-26T05:47:10;13.43;;;4.30;;
29730;SDS011;16639;51.488;0.152;2024-02-26T05:49:37;17.70;;;3.92;;
29730;SDS011;16639;51.488;0.152;2024-02-26T05:52:05;13.88;;;3.95;;
29730;SDS011;16639;51.488;0.152;2024-02-26T05:54:33;13.32;;;4.32;;
29730;SDS011;16639;51.488;0.152;2024-02-26T05:57:01;16.52;;;4.15;;
29730;SDS011;16639;51.488;0.152;2024-02-26T05:59:28;13.25;;;3.90;;
29730;SDS011;16639;51.488;0.152;2024-02-26T06:01:56;18.17;;;3.88;;
29730;SDS011;16639;51.488;0.152;2024-02-26T06:04:23;11.32;;;3.83;;
29730;SDS011;16639;51.488;0.152;2024-02-26T06:06:51;11.05;;;3.60;;
29730;SDS011;16639;51.488;0.152;2024-02-26T06:09:18;34.20;;;4.40;;
29730;SDS011;16639;51.488;0.152;2024-02-26T06:11:46;17.73;;;3.92;;
29730;SDS011;16639;51.488;0.152;2024-02-26T06:14:13;10.73;;;4.00;;
29730;SDS011;16639;51.488;0.152;2024-02-26T06:16:44;36.90;;;5.90;;
29730;SDS011;16639;51.488;0.152;2024-02-26T06:19:12;12.90;;;2.97;;
29730;SDS011;16639;51.488;0.152;2024-02-26T06:21:40;16.33;;;3.30;;
29730;SDS011;16639;51.488;0.152;2024-02-26T06:24:07;13.27;;;3.47;;
29730;SDS011;16639;51.488;0.152;2024-02-26T06:26:35;6.60;;;3.35;;
29730;SDS011;16639;51.488;0.152;2024-02-26T06:29:02;9.02;;;3.30;;
29730;SDS011;16639;51.488;0.152;2024-02-26T06:31:30;7.53;;;2.70;;
29730;SDS011;16639;51.488;0.152;2024-02-26T06:33:57;9.57;;;3.03;;
29730;SDS011;16639;51.488;0.152;2024-02-26T06:36:25;9.18;;;2.70;;
29730;SDS011;16639;51.488;0.152;2024-02-26T06:38:53;6.80;;;2.65;;
29730;SDS011;16639;51.488;0.152;2024-02-26T06:41:21;6.18;;;2.38;;
29730;SDS011;16639;51.488;0.152;2024-02-26T06:43:54;4.53;;;2.30;;
29730;SDS011;16639;51.488;0.152;2024-02-26T06:46:22;6.90;;;2.80;;
29730;SDS011;16639;51.488;0.152;2024-02-26T06:48:50;8.68;;;2.40;;
29730;SDS011;16639;51.488;0.152;2024-02-26T06:51:21;12.75;;;3.28;;
29730;SDS011;16639;51.488;0.152;2024-02-26T06:53:49;5.90;;;2.50;;
29730;SDS011;16639;51.488;0.152;2024-02-26T06:56:17;6.95;;;2.47;;
29730;SDS011;16639;51.488;0.152;2024-02-26T06:58:44;7.50;;;2.35;;
29730;SDS011;16639;51.488;0.152;2024-02-26T07:01:12;9.90;;;2.85;;
29730;SDS011;16639;51.488;0.152;2024-02-26T07:03:40;14.45;;;2.80;;
29730;SDS011;16639;51.488;0.152;2024-02-26T07:06:08;31.20;;;3.90;;
29730;SDS011;16639;51.488;0.152;2024-02-26T07:08:36;12.20;;;3.00;;
29730;SDS011;16639;51.488;0.152;2024-02-26T07:11:06;7.82;;;2.45;;
29730;SDS011;16639;51.488;0.152;2024-02-26T07:13:34;10.57;;;2.50;;
29730;SDS011;16639;51.488;0.152;2024-02-26T07:16:02;31.40;;;3.40;;
29730;SDS011;16639;51.488;0.152;2024-02-26T07:18:30;7.10;;;2.40;;
29730;SDS011;16639;51.488;0.152;2024-02-26T07:20:57;13.02;;;2.78;;
29730;SDS011;16639;51.488;0.152;2024-02-26T07:23:28;9.98;;;2.40;;
29730;SDS011;16639;51.488;0.152;2024-02-26T07:25:56;9.52;;;3.05;;
29730;SDS011;16639;51.488;0.152;2024-02-26T07:28:24;12.30;;;2.60;;
29730;SDS011;16639;51.488;0.152;2024-02-26T07:30:51;12.70;;;2.85;;
29730;SDS011;16639;51.488;0.152;2024-02-26T07:33:19;7.25;;;2.17;;
29730;SDS011;16639;51.488;0.152;2024-02-26T07:35:46;12.38;;;3.05;;
29730;SDS011;16639;51.488;0.152;2024-02-26T07:38:14;19.88;;;3.15;;
29730;SDS011;16639;51.488;0.152;2024-02-26T07:40:58;8.63;;;2.42;;
29730;SDS011;16639;51.488;0.152;2024-02-26T07:43:29;9.82;;;2.50;;
29730;SDS011;16639;51.488;0.152;2024-02-26T07:45:57;8.20;;;2.72;;
29730;SDS011;16639;51.488;0.152;2024-02-26T07:48:25;8.13;;;2.42;;
29730;SDS011;16639;51.488;0.152;2024-02-26T07:50:52;11.75;;;3.08;;
29730;SDS011;16639;51.488;0.152;2024-02-26T07:53:20;6.20;;;2.38;;
29730;SDS011;16639;51.488;0.152;2024-02-26T07:55:47;8.13;;;2.42;;
29730;SDS011;16639;51.488;0.152;2024-02-26T07:58:14;6.78;;;1.80;;
29730;SDS011;16639;51.488;0.152;2024-02-26T08:00:42;9.68;;;2.15;;
29730;SDS011;16639;51.488;0.152;2024-02-26T08:03:10;7.18;;;2.40;;
29730;SDS011;16639;51.488;0.152;2024-02-26T08:05:38;5.45;;;1.92;;
29730;SDS011;16639;51.488;0.152;2024-02-26T08:08:07;7.07;;;3.33;;
29730;SDS011;16639;51.488;0.152;2024-02-26T08:10:34;6.28;;;1.90;;
29730;SDS011;16639;51.488;0.152;2024-02-26T08:13:02;7.72;;;2.33;;
29730;SDS011;16639;51.488;0.152;2024-02-26T08:15:32;5.30;;;2.20;;
29730;SDS011;16639;51.488;0.152;2024-02-26T08:18:01;5.15;;;2.35;;
29730;SDS011;16639;51.488;0.152;2024-02-26T08:20:31;4.38;;;2.13;;
29730;SDS011;16639;51.488;0.152;2024-02-26T08:22:58;4.35;;;1.83;;
29730;SDS011;16639;51.488;0.152;2024-02-26T08:25:26;8.20;;;3.20;;
29730;SDS011;16639;51.488;0.152;2024-02-26T08:27:53;14.02;;;2.95;;
29730;SDS011;16639;51.488;0.152;2024-02-26T08:30:21;5.80;;;2.50;;
29730;SDS011;16639;51.488;0.152;2024-02-26T08:32:49;8.00;;;2.30;;
29730;SDS011;16639;51.488;0.152;2024-02-26T08:35:18;6.88;;;2.00;;
29730;SDS011;16639;51.488;0.152;2024-02-26T08:37:47;9.32;;;2.47;;
29730;SDS011;16639;51.488;0.152;2024-02-26T08:40:15;8.15;;;2.45;;
29730;SDS011;16639;51.488;0.152;2024-02-26T08:42:45;9.75;;;2.92;;
29730;SDS011;16639;51.488;0.152;2024-02-26T08:45:12;10.45;;;2.53;;
29730;SDS011;16639;51.488;0.152;2024-02-26T08:47:40;9.13;;;2.35;;
29730;SDS011;16639;51.488;0.152;2024-02-26T08:50:08;15.70;;;2.72;;
29730;SDS011;16639;51.488;0.152;2024-02-26T08:52:36;20.63;;;3.63;;
29730;SDS011;16639;51.488;0.152;2024-02-26T08:55:04;9.35;;;2.97;;
29730;SDS011;16639;51.488;0.152;2024-02-26T08:57:33;16.25;;;2.78;;
29730;SDS011;16639;51.488;0.152;2024-02-26T09:00:01;28.40;;;4.28;;
29730;SDS011;16639;51.488;0.152;2024-02-26T09:02:28;21.98;;;3.15;;
29730;SDS011;16639;51.488;0.152;2024-02-26T09:04:56;8.80;;;2.50;;
29730;SDS011;16639;51.488;0.152;2024-02-26T09:07:23;9.57;;;2.33;;
29730;SDS011;16639;51.488;0.152;2024-02-26T09:09:51;12.32;;;2.70;;
29730;SDS011;16639;51.488;0.152;2024-02-26T09:12:18;13.20;;;2.53;;
29730;SDS011;16639;51.488;0.152;2024-02-26T09:14:46;4.07;;;2.15;;
29730;SDS011;16639;51.488;0.152;2024-02-26T09:17:14;7.72;;;2.10;;
29730;SDS011;16639;51.488;0.152;2024-02-26T09:19:41;6.00;;;2.53;;
29730;SDS011;16639;51.488;0.152;2024-02-26T09:22:11;4.75;;;1.77;;
29730;SDS011;16639;51.488;0.152;2024-02-26T09:24:41;4.30;;;1.95;;
29730;SDS011;16639;51.488;0.152;2024-02-26T09:27:09;7.28;;;2.65;;
29730;SDS011;16639;51.488;0.152;2024-02-26T09:29:36;5.57;;;2.20;;
29730;SDS011;16639;51.488;0.152;2024-02-26T09:32:03;6.13;;;2.15;;
29730;SDS011;16639;51.488;0.152;2024-02-26T09:34:31;15.85;;;2.17;;
29730;SDS011;16639;51.488;0.152;2024-02-26T09:37:00;6.00;;;1.70;;
29730;SDS011;16639;51.488;0.152;2024-02-26T09:39:41;2.95;;;1.75;;
29730;SDS011;16639;51.488;0.152;2024-02-26T09:42:09;13.20;;;2.22;;
29730;SDS011;16639;51.488;0.152;2024-02-26T09:44:39;7.60;;;2.28;;
29730;SDS011;16639;51.488;0.152;2024-02-26T09:47:09;11.60;;;2.67;;
29730;SDS011;16639;51.488;0.152;2024-02-26T09:49:40;4.97;;;2.20;;
29730;SDS011;16639;51.488;0.152;2024-02-26T09:52:10;9.23;;;2.83;;
29730;SDS011;16639;51.488;0.152;2024-02-26T09:54:37;5.07;;;2.35;;
29730;SDS011;16639;51.488;0.152;2024-02-26T09:57:09;5.70;;;2.15;;
29730;SDS011;16639;51.488;0.152;2024-02-26T09:59:43;11.10;;;2.33;;
29730;SDS011;16639;51.488;0.152;2024-02-26T10:02:13;8.45;;;1.85;;
29730;SDS011;16639;51.488;0.152;2024-02-26T10:04:41;7.00;;;2.50;;
29730;SDS011;16639;51.488;0.152;2024-02-26T10:07:16;5.10;;;2.80;;
29730;SDS011;16639;51.488;0.152;2024-02-26T10:09:43;7.55;;;2.40;;
29730;SDS011;16639;51.488;0.152;2024-02-26T10:12:11;8.73;;;2.35;;
29730;SDS011;16639;51.488;0.152;2024-02-26T10:14:40;7.90;;;2.58;;
29730;SDS011;16639;51.488;0.152;2024-02-26T10:17:07;8.93;;;2.08;;
29730;SDS011;16639;51.488;0.152;2024-02-26T10:19:35;7.63;;;2.15;;
29730;SDS011;16639;51.488;0.152;2024-02-26T10:22:05;5.38;;;2.03;;
29730;SDS011;16639;51.488;0.152;2024-02-26T10:24:33;14.43;;;1.98;;
29730;SDS011;16639;51.488;0.152;2024-02-26T10:27:02;8.45;;;2.00;;
29730;SDS011;16639;51.488;0.152;2024-02-26T10:29:30;6.50;;;1.60;;
29730;SDS011;16639;51.488;0.152;2024-02-26T10:31:58;9.25;;;2.13;;
29730;SDS011;16639;51.488;0.152;2024-02-26T10:34:25;4.90;;;2.00;;
29730;SDS011;16639;51.488;0.152;2024-02-26T10:36:53;4.35;;;2.10;;
29730;SDS011;16639;51.488;0.152;2024-02-26T10:39:21;3.17;;;1.77;;
29730;SDS011;16639;51.488;0.152;2024-02-26T10:41:49;10.82;;;2.22;;
29730;SDS011;16639;51.488;0.152;2024-02-26T10:44:17;7.53;;;1.73;;
29730;SDS011;16639;51.488;0.152;2024-02-26T10:46:46;5.00;;;1.67;;
29730;SDS011;16639;51.488;0.152;2024-02-26T10:49:18;12.43;;;2.30;;
29730;SDS011;16639;51.488;0.152;2024-02-26T10:51:52;6.45;;;1.73;;
29730;SDS011;16639;51.488;0.152;2024-02-26T10:54:26;5.53;;;2.05;;
29730;SDS011;16639;51.488;0.152;2024-02-26T10:56:56;5.72;;;1.65;;
29730;SDS011;16639;51.488;0.152;2024-02-26T10:59:26;7.18;;;1.98;;
29730;SDS011;16639;51.488;0.152;2024-02-26T11:01:53;7.35;;;1.60;;
29730;SDS011;16639;51.488;0.152;2024-02-26T11:04:22;4.68;;;2.20;;
29730;SDS011;16639;51.488;0.152;2024-02-26T11:06:52;9.25;;;1.80;;
29730;SDS011;16639;51.488;0.152;2024-02-26T11:09:22;9.35;;;2.33;;
29730;SDS011;16639;51.488;0.152;2024-02-26T11:11:51;6.32;;;2.00;;
29730;SDS011;16639;51.488;0.152;2024-02-26T11:14:22;12.50;;;2.63;;
29730;SDS011;16639;51.488;0.152;2024-02-26T11:16:53;4.10;;;1.65;;
29730;SDS011;16639;51.488;0.152;2024-02-26T11:19:22;4.05;;;1.52;;
29730;SDS011;16639;51.488;0.152;2024-02-26T11:21:53;12.63;;;2.13;;
29730;SDS011;16639;51.488;0.152;2024-02-26T11:24:24;5.38;;;1.35;;
29730;SDS011;16639;51.488;0.152;2024-02-26T11:26:53;2.55;;;1.50;;
29730;SDS011;16639;51.488;0.152;2024-02-26T11:29:28;3.42;;;1.55;;
29730;SDS011;16639;51.488;0.152;2024-02-26T11:32:01;5.40;;;1.63;;
29730;SDS011;16639;51.488;0.152;2024-02-26T11:34:28;8.35;;;1.70;;
29730;SDS011;16639;51.488;0.152;2024-02-26T11:36:56;7.53;;;2.78;;
29730;SDS011;16639;51.488;0.152;2024-02-26T11:39:24;9.90;;;2.15;;
29730;SDS011;16639;51.488;0.152;2024-02-26T11:41:53;12.05;;;2.28;;
29730;SDS011;16639;51.488;0.152;2024-02-26T11:44:30;6.55;;;1.40;;
29730;SDS011;16639;51.488;0.152;2024-02-26T11:46:57;11.30;;;2.65;;
29730;SDS011;16639;51.488;0.152;2024-02-26T11:51:53;4.55;;;1.20;;
29730;SDS011;16639;51.488;0.152;2024-02-26T12:05:30;8.40;;;2.63;;
29730;SDS011;16639;51.488;0.152;2024-02-26T12:08:00;10.90;;;1.58;;
29730;SDS011;16639;51.488;0.152;2024-02-26T12:10:38;13.77;;;1.60;;
29730;SDS011;16639;51.488;0.152;2024-02-26T12:13:11;3.60;;;1.45;;
29730;SDS011;16639;51.488;0.152;2024-02-26T12:15:55;2.38;;;1.15;;
29730;SDS011;16639;51.488;0.152;2024-02-26T12:18:24;4.63;;;1.27;;
29730;SDS011;16639;51.488;0.152;2024-02-26T12:21:02;5.75;;;1.38;;
29730;SDS011;16639;51.488;0.152;2024-02-26T12:23:31;2.15;;;1.40;;
29730;SDS011;16639;51.488;0.152;2024-02-26T12:25:59;4.78;;;1.40;;
29730;SDS011;16639;51.488;0.152;2024-02-26T12:28:31;7.00;;;1.60;;
29730;SDS011;16639;51.488;0.152;2024-02-26T12:30:58;7.03;;;1.58;;
29730;SDS011;16639;51.488;0.152;2024-02-26T12:33:27;7.95;;;1.40;;
29730;SDS011;16639;51.488;0.152;2024-02-26T12:35:56;3.33;;;1.40;;
29730;SDS011;16639;51.488;0.152;2024-02-26T12:38:25;1.48;;;1.20;;
29730;SDS011;16639;51.488;0.152;2024-02-26T12:40:54;5.55;;;1.60;;
29730;SDS011;16639;51.488;0.152;2024-02-26T12:43:21;1.58;;;1.40;;
29730;SDS011;16639;51.488;0.152;2024-02-26T12:45:49;10.40;;;1.63;;
29730;SDS011;16639;51.488;0.152;2024-02-26T12:48:17;10.05;;;1.75;;
29730;SDS011;16639;51.488;0.152;2024-02-26T12:50:45;4.53;;;1.67;;
29730;SDS011;16639;51.488;0.152;2024-02-26T12:53:16;3.63;;;1.08;;
29730;SDS011;16639;51.488;0.152;2024-02-26T12:55:44;5.00;;;1.73;;
29730;SDS011;16639;51.488;0.152;2024-02-26T12:58:12;5.53;;;1.38;;
29730;SDS011;16639;51.488;0.152;2024-02-26T13:00:40;6.72;;;3.75;;
29730;SDS011;16639;51.488;0.152;2024-02-26T13:03:07;5.88;;;2.10;;
29730;SDS011;16639;51.488;0.152;2024-02-26T13:05:36;7.57;;;1.40;;
29730;SDS011;16639;51.488;0.152;2024-02-26T13:08:04;4.63;;;1.50;;
29730;SDS011;16639;51.488;0.152;2024-02-26T13:10:35;11.82;;;1.80;;
29730;SDS011;16639;51.488;0.152;2024-02-26T13:13:03;8.85;;;1.65;;
29730;SDS011;16639;51.488;0.152;2024-02-26T13:15:32;2.25;;;1.20;;
29730;SDS011;16639;51.488;0.152;2024-02-26T13:18:00;3.55;;;1.52;;
29730;SDS011;16639;51.488;0.152;2024-02-26T13:20:40;3.80;;;1.42;;
29730;SDS011;16639;51.488;0.152;2024-02-26T13:23:11;5.07;;;2.00;;
29730;SDS011;16639;51.488;0.152;2024-02-26T13:25:40;5.78;;;1.67;;
29730;SDS011;16639;51.488;0.152;2024-02-26T13:28:15;3.17;;;1.85;;
29730;SDS011;16639;51.488;0.152;2024-02-26T13:30:54;5.00;;;1.90;;
29730;SDS011;16639;51.488;0.152;2024-02-26T13:33:28;4.85;;;1.52;;
29730;SDS011;16639;51.488;0.152;2024-02-26T13:35:58;3.63;;;1.45;;
29730;SDS011;16639;51.488;0.152;2024-02-26T13:38:30;5.60;;;1.40;;
29730;SDS011;16639;51.488;0.152;2024-02-26T13:40:58;3.22;;;1.30;;
29730;SDS011;16639;51.488;0.152;2024-02-26T13:43:27;4.35;;;1.52;;
29730;SDS011;16639;51.488;0.152;2024-02-26T13:45:54;3.97;;;1.40;;
29730;SDS011;16639;51.488;0.152;2024-02-26T13:48:21;5.60;;;2.17;;
29730;SDS011;16639;51.488;0.152;2024-02-26T13:50:49;4.13;;;1.80;;
29730;SDS011;16639;51.488;0.152;2024-02-26T13:53:17;4.28;;;1.83;;
29730;SDS011;16639;51.488;0.152;2024-02-26T13:55:45;9.80;;;1.80;;
29730;SDS011;16639;51.488;0.152;2024-02-26T13:58:12;4.05;;;1.65;;
29730;SDS011;16639;51.488;0.152;2024-02-26T14:00:42;7.82;;;1.77;;
29730;SDS011;16639;51.488;0.152;2024-02-26T14:03:10;3.90;;;1.40;;
29730;SDS011;16639;51.488;0.152;2024-02-26T14:05:38;3.15;;;1.50;;
29730;SDS011;16639;51.488;0.152;2024-02-26T14:08:06;7.38;;;1.52;;
29730;SDS011;16639;51.488;0.152;2024-02-26T14:10:34;4.43;;;1.63;;
29730;SDS011;16639;51.488;0.152;2024-02-26T14:13:02;13.70;;;3.28;;
29730;SDS011;16639;51.488;0.152;2024-02-26T14:15:30;4.05;;;1.92;;
29730;SDS011;16639;51.488;0.152;2024-02-26T14:18:01;5.63;;;1.67;;
29730;SDS011;16639;51.488;0.152;2024-02-26T14:20:31;2.67;;;1.60;;
29730;SDS011;16639;51.488;0.152;2024-02-26T14:22:58;8.43;;;1.98;;
29730;SDS011;16639;51.488;0.152;2024-02-26T14:25:26;8.52;;;1.75;;
29730;SDS011;16639;51.488;0.152;2024-02-26T14:27:57;5.28;;;1.30;;
29730;SDS011;16639;51.488;0.152;2024-02-26T14:30:26;4.60;;;2.08;;
29730;SDS011;16639;51.488;0.152;2024-02-26T14:32:54;6.75;;;1.63;;
29730;SDS011;16639;51.488;0.152;2024-02-26T14:35:22;2.20;;;1.40;;
29730;SDS011;16639;51.488;0.152;2024-02-26T14:37:49;4.07;;;1.70;;
29730;SDS011;16639;51.488;0.152;2024-02-26T14:40:18;7.97;;;3.05;;
29730;SDS011;16639;51.488;0.152;2024-02-26T14:42:46;4.03;;;1.58;;
29730;SDS011;16639;51.488;0.152;2024-02-26T14:45:14;5.82;;;1.55;;
29730;SDS011;16639;51.488;0.152;2024-02-26T14:47:41;3.10;;;1.35;;
29730;SDS011;16639;51.488;0.152;2024-02-26T14:50:09;2.50;;;1.50;;
29730;SDS011;16639;51.488;0.152;2024-02-26T14:52:36;7.80;;;1.40;;
29730;SDS011;16639;51.488;0.152;2024-02-26T14:55:04;6.97;;;1.75;;
29730;SDS011;16639;51.488;0.152;2024-02-26T14:57:32;7.88;;;1.83;;
29730;SDS011;16639;51.488;0.152;2024-02-26T14:59:59;3.88;;;1.98;;